createdAt,value
2023-01-13T00:00:11.014Z,4.60
2023-01-13T00:01:10.993Z,2.80
2023-01-13T00:02:11.038Z,3.70
2023-01-13T00:03:10.988Z,4.40
2023-01-13T00:04:10.957Z,3.80
2023-01-13T00:05:11.013Z,3.30
2023-01-13T00:06:10.927Z,4.00
2023-01-13T00:07:10.942Z,3.30
2023-01-13T00:08:10.930Z,2.30
2023-01-13T00:09:10.910Z,4.40
2023-01-13T00:10:10.912Z,4.90
2023-01-13T00:11:10.897Z,4.30
2023-01-13T00:12:10.907Z,2.50
2023-01-13T00:13:10.884Z,4.80
2023-01-13T00:14:10.855Z,2.90
2023-01-13T00:15:10.844Z,3.60
2023-01-13T00:16:10.871Z,1.80
2023-01-13T00:17:10.803Z,2.30
2023-01-13T00:18:10.828Z,2.70
2023-01-13T00:19:10.778Z,4.60
2023-01-13T00:20:10.768Z,1.80
2023-01-13T00:21:10.764Z,2.10
2023-01-13T00:22:10.748Z,2.10
2023-01-13T00:23:10.770Z,3.80
2023-01-13T00:24:10.727Z,3.70
2023-01-13T00:25:10.716Z,4.90
2023-01-13T00:26:10.701Z,4.40
2023-01-13T00:27:10.701Z,2.40
2023-01-13T00:28:10.704Z,4.30
2023-01-13T00:29:10.669Z,4.20
2023-01-13T00:30:10.672Z,3.20
2023-01-13T00:31:10.706Z,2.80
2023-01-13T00:32:10.637Z,2.70
2023-01-13T00:33:10.633Z,2.50
2023-01-13T00:34:10.613Z,5.10
2023-01-13T00:35:10.619Z,2.10
2023-01-13T00:36:10.628Z,5.30
2023-01-13T00:37:10.584Z,3.10
2023-01-13T00:38:10.610Z,5.00
2023-01-13T00:39:10.567Z,4.00
2023-01-13T00:40:10.550Z,5.00
2023-01-13T00:41:10.553Z,5.90
2023-01-13T00:42:10.547Z,2.50
2023-01-13T00:43:10.532Z,3.00
2023-01-13T00:44:10.515Z,5.30
2023-01-13T00:45:10.488Z,4.10
2023-01-13T00:46:10.514Z,5.10
2023-01-13T00:47:10.469Z,5.20
2023-01-13T00:48:10.484Z,5.80
2023-01-13T00:49:10.445Z,5.90
2023-01-13T00:50:10.442Z,5.60
2023-01-13T00:51:10.429Z,5.80
2023-01-13T00:52:10.413Z,4.40
2023-01-13T00:53:10.417Z,5.40
2023-01-13T00:54:10.433Z,6.30
2023-01-13T00:55:10.379Z,4.90
2023-01-13T00:56:10.395Z,2.00
2023-01-13T00:57:10.359Z,4.30
2023-01-13T00:58:10.358Z,4.20
2023-01-13T00:59:10.345Z,3.50
2023-01-13T01:00:10.333Z,4.70
2023-01-13T01:01:10.521Z,4.50
2023-01-13T01:02:10.518Z,5.20
2023-01-13T01:03:10.324Z,4.70
2023-01-13T01:04:10.287Z,6.70
2023-01-13T01:05:10.270Z,3.70
2023-01-13T01:06:10.256Z,5.00
2023-01-13T01:07:10.278Z,5.50
2023-01-13T01:08:10.244Z,5.40
2023-01-13T01:09:10.228Z,4.50
2023-01-13T01:10:10.225Z,3.50
2023-01-13T01:11:10.204Z,3.00
2023-01-13T01:12:10.198Z,4.90
2023-01-13T01:13:10.208Z,6.60
2023-01-13T01:14:10.167Z,3.60
2023-01-13T01:15:10.210Z,4.70
2023-01-13T01:16:10.182Z,3.70
2023-01-13T01:17:10.164Z,6.30
2023-01-13T01:18:10.157Z,7.20
2023-01-13T01:19:10.128Z,6.60
2023-01-13T01:20:10.103Z,4.10
2023-01-13T01:21:10.123Z,5.20
2023-01-13T01:22:10.083Z,3.50
2023-01-13T01:23:10.101Z,6.80
2023-01-13T01:24:10.066Z,6.30
2023-01-13T01:25:10.099Z,5.80
2023-01-13T01:26:10.051Z,7.20
2023-01-13T01:27:10.041Z,7.10
2023-01-13T01:28:10.031Z,5.70
2023-01-13T01:29:10.011Z,4.10
2023-01-13T01:30:10.002Z,6.20
2023-01-13T01:31:10.025Z,6.10
2023-01-13T01:32:09.970Z,6.30
2023-01-13T01:33:10.006Z,4.60
2023-01-13T01:34:09.952Z,7.50
2023-01-13T01:35:09.940Z,7.10
2023-01-13T01:36:09.939Z,5.80
2023-01-13T01:37:09.936Z,11.00
2023-01-13T01:38:09.930Z,7.70
2023-01-13T01:39:09.897Z,5.10
2023-01-13T01:40:09.896Z,3.70
2023-01-13T01:41:09.878Z,5.00
2023-01-13T01:42:09.862Z,3.60
2023-01-13T01:43:09.863Z,5.90
2023-01-13T01:44:09.849Z,7.60
2023-01-13T01:45:09.837Z,3.00
2023-01-13T01:46:09.826Z,8.80
2023-01-13T01:47:09.820Z,7.90
2023-01-13T01:48:09.825Z,7.60
2023-01-13T01:49:09.785Z,5.80
2023-01-13T01:50:09.783Z,8.20
2023-01-13T01:51:09.792Z,4.10
2023-01-13T01:52:09.761Z,6.60
2023-01-13T01:53:09.755Z,7.30
2023-01-13T01:54:09.739Z,6.90
2023-01-13T01:55:09.724Z,5.80
2023-01-13T01:56:09.723Z,7.60
2023-01-13T01:57:09.722Z,6.20
2023-01-13T01:58:09.704Z,3.50
2023-01-13T01:59:09.677Z,4.50
2023-01-13T02:00:09.714Z,5.60
2023-01-13T02:01:09.825Z,6.70
2023-01-13T02:02:09.870Z,5.30
2023-01-13T02:03:09.651Z,5.50
2023-01-13T02:04:09.622Z,4.80
2023-01-13T02:05:09.619Z,7.10
2023-01-13T02:06:09.607Z,6.10
2023-01-13T02:07:09.621Z,7.30
2023-01-13T02:08:09.598Z,9.60
2023-01-13T02:09:09.601Z,7.90
2023-01-13T02:10:09.635Z,8.10
2023-01-13T02:11:09.585Z,10.40
2023-01-13T02:12:09.592Z,8.20
2023-01-13T02:13:09.561Z,8.60
2023-01-13T02:14:09.546Z,6.70
2023-01-13T02:15:09.500Z,8.40
2023-01-13T02:16:09.549Z,10.10
2023-01-13T02:17:09.486Z,8.30
2023-01-13T02:18:09.485Z,11.60
2023-01-13T02:19:09.483Z,11.70
2023-01-13T02:20:09.454Z,9.90
2023-01-13T02:21:09.472Z,7.90
2023-01-13T02:22:09.440Z,8.40
2023-01-13T02:23:09.427Z,8.40
2023-01-13T02:24:09.416Z,10.10
2023-01-13T02:25:09.394Z,9.40
2023-01-13T02:26:09.382Z,10.10
2023-01-13T02:27:09.380Z,11.30
2023-01-13T02:28:09.385Z,8.70
2023-01-13T02:29:09.360Z,15.20
2023-01-13T02:30:09.358Z,7.20
2023-01-13T02:31:09.326Z,10.00
2023-01-13T02:32:09.321Z,8.90
2023-01-13T02:33:09.331Z,9.00
2023-01-13T02:34:09.311Z,8.10
2023-01-13T02:35:09.288Z,10.00
2023-01-13T02:36:09.302Z,6.00
2023-01-13T02:37:09.278Z,8.80
2023-01-13T02:38:09.278Z,6.30
2023-01-13T02:39:09.251Z,8.20
2023-01-13T02:40:09.244Z,7.70
2023-01-13T02:41:09.227Z,10.10
2023-01-13T02:42:09.233Z,8.30
2023-01-13T02:43:09.236Z,12.00
2023-01-13T02:44:09.198Z,7.00
2023-01-13T02:45:09.192Z,5.90
2023-01-13T02:46:09.220Z,7.80
2023-01-13T02:47:09.188Z,10.90
2023-01-13T02:48:09.176Z,5.30
2023-01-13T02:49:09.143Z,9.10
2023-01-13T02:50:09.127Z,10.50
2023-01-13T02:51:09.129Z,7.50
2023-01-13T02:52:09.120Z,7.50
2023-01-13T02:53:09.119Z,9.30
2023-01-13T02:54:09.099Z,7.90
2023-01-13T02:55:09.078Z,9.90
2023-01-13T02:56:09.063Z,6.90
2023-01-13T02:57:09.063Z,7.60
2023-01-13T02:58:09.068Z,8.80
2023-01-13T02:59:09.035Z,6.00
2023-01-13T03:00:08.999Z,6.10
2023-01-13T03:01:09.119Z,10.30
2023-01-13T03:02:09.204Z,12.30
2023-01-13T03:03:08.972Z,10.20
2023-01-13T03:04:08.972Z,6.60
2023-01-13T03:05:08.955Z,10.40
2023-01-13T03:06:08.945Z,11.30
2023-01-13T03:07:08.926Z,10.40
2023-01-13T03:08:08.915Z,13.30
2023-01-13T03:09:08.918Z,9.50
2023-01-13T03:10:08.896Z,11.50
2023-01-13T03:11:08.882Z,14.60
2023-01-13T03:12:08.868Z,12.80
2023-01-13T03:13:08.859Z,11.50
2023-01-13T03:14:08.875Z,6.10
2023-01-13T03:15:08.830Z,10.70
2023-01-13T03:16:08.957Z,11.40
2023-01-13T03:17:08.818Z,10.90
2023-01-13T03:18:08.806Z,10.90
2023-01-13T03:19:08.815Z,9.80
2023-01-13T03:20:08.794Z,8.00
2023-01-13T03:21:08.764Z,11.30
2023-01-13T03:22:08.755Z,12.20
2023-01-13T03:23:08.755Z,11.60
2023-01-13T03:24:08.764Z,12.80
2023-01-13T03:25:08.734Z,10.50
2023-01-13T03:26:08.726Z,14.40
2023-01-13T03:27:08.706Z,11.80
2023-01-13T03:28:08.687Z,11.00
2023-01-13T03:29:08.718Z,13.40
2023-01-13T03:30:08.676Z,14.40
2023-01-13T03:31:08.719Z,12.80
2023-01-13T03:32:08.665Z,12.60
2023-01-13T03:33:08.641Z,11.60
2023-01-13T03:34:08.676Z,13.40
2023-01-13T03:35:08.636Z,11.60
2023-01-13T03:36:08.615Z,11.30
2023-01-13T03:37:08.615Z,12.20
2023-01-13T03:38:08.610Z,13.90
2023-01-13T03:39:16.187Z,14.80
2023-01-13T03:40:08.567Z,9.60
2023-01-13T03:41:08.550Z,14.70
2023-01-13T03:42:08.540Z,14.50
2023-01-13T03:43:08.526Z,11.90
2023-01-13T03:44:08.541Z,15.80
2023-01-13T03:45:08.511Z,15.70
2023-01-13T03:46:08.585Z,15.70
2023-01-13T03:47:08.491Z,12.60
2023-01-13T03:48:08.483Z,16.90
2023-01-13T03:49:08.494Z,16.10
2023-01-13T03:50:08.463Z,17.00
2023-01-13T03:51:08.454Z,17.70
2023-01-13T03:52:08.441Z,14.50
2023-01-13T03:53:08.424Z,12.00
2023-01-13T03:54:08.491Z,12.50
2023-01-13T03:55:08.400Z,16.60
2023-01-13T03:56:08.387Z,11.40
2023-01-13T03:57:08.377Z,14.40
2023-01-13T03:58:08.416Z,11.10
2023-01-13T03:59:08.381Z,10.80
2023-01-13T04:00:08.344Z,16.20
2023-01-13T04:01:08.437Z,9.10
2023-01-13T04:02:08.433Z,15.00
2023-01-13T04:03:08.309Z,17.60
2023-01-13T04:04:08.407Z,13.40
2023-01-13T04:05:08.284Z,12.70
2023-01-13T04:06:08.274Z,15.60
2023-01-13T04:07:08.264Z,15.80
2023-01-13T04:08:08.255Z,12.50
2023-01-13T04:09:08.263Z,12.20
2023-01-13T04:10:08.240Z,12.30
2023-01-13T04:11:08.219Z,15.10
2023-01-13T04:12:08.203Z,12.80
2023-01-13T04:13:08.206Z,13.90
2023-01-13T04:14:08.205Z,10.70
2023-01-13T04:15:08.175Z,12.30
2023-01-13T04:16:08.186Z,12.50
2023-01-13T04:17:08.152Z,12.20
2023-01-13T04:18:08.143Z,17.40
2023-01-13T04:19:08.146Z,14.30
2023-01-13T04:20:08.117Z,13.10
2023-01-13T04:21:08.118Z,10.80
2023-01-13T04:22:08.098Z,11.20
2023-01-13T04:23:08.089Z,13.10
2023-01-13T04:24:08.102Z,11.40
2023-01-13T04:25:08.082Z,14.80
2023-01-13T04:26:08.057Z,15.20
2023-01-13T04:27:08.045Z,16.20
2023-01-13T04:28:08.050Z,11.10
2023-01-13T04:29:08.057Z,14.20
2023-01-13T04:30:08.011Z,9.10
2023-01-13T04:31:08.054Z,13.20
2023-01-13T04:32:08.001Z,12.60
2023-01-13T04:33:07.984Z,13.60
2023-01-13T04:34:07.987Z,14.70
2023-01-13T04:35:07.962Z,15.40
2023-01-13T04:36:07.954Z,14.20
2023-01-13T04:37:07.958Z,14.20
2023-01-13T04:38:07.945Z,14.90
2023-01-13T04:39:07.930Z,9.00
2023-01-13T04:40:07.909Z,12.70
2023-01-13T04:41:07.899Z,17.60
2023-01-13T04:42:07.899Z,15.90
2023-01-13T04:43:07.871Z,23.50
2023-01-13T04:44:07.878Z,16.20
2023-01-13T04:45:07.861Z,11.70
2023-01-13T04:46:07.863Z,15.90
2023-01-13T04:47:07.853Z,10.50
2023-01-13T04:48:07.827Z,15.70
2023-01-13T04:49:07.828Z,12.30
2023-01-13T04:50:07.793Z,10.10
2023-01-13T04:51:07.783Z,12.60
2023-01-13T04:52:07.765Z,14.00
2023-01-13T04:53:07.791Z,11.90
2023-01-13T04:54:07.762Z,14.20
2023-01-13T04:55:07.753Z,10.20
2023-01-13T04:56:07.733Z,12.50
2023-01-13T04:57:07.720Z,12.80
2023-01-13T04:58:07.702Z,8.90
2023-01-13T04:59:07.723Z,12.00
2023-01-13T05:00:07.673Z,18.00
2023-01-13T05:01:07.728Z,11.50
2023-01-13T05:02:07.715Z,9.50
2023-01-13T05:03:07.657Z,12.40
2023-01-13T05:04:07.671Z,15.80
2023-01-13T05:05:07.695Z,16.00
2023-01-13T05:06:07.638Z,13.20
2023-01-13T05:07:07.612Z,13.80
2023-01-13T05:08:07.597Z,12.30
2023-01-13T05:09:07.611Z,12.00
2023-01-13T05:10:07.575Z,15.60
2023-01-13T05:11:07.563Z,16.20
2023-01-13T05:12:07.565Z,14.90
2023-01-13T05:13:07.563Z,12.30
2023-01-13T05:14:07.564Z,12.10
2023-01-13T05:15:07.522Z,15.30
2023-01-13T05:16:09.823Z,9.70
2023-01-13T05:17:07.502Z,19.70
2023-01-13T05:18:07.490Z,10.60
2023-01-13T05:19:07.492Z,12.70
2023-01-13T05:20:07.484Z,13.00
2023-01-13T05:21:07.467Z,11.50
2023-01-13T05:22:07.452Z,16.80
2023-01-13T05:23:07.432Z,11.70
2023-01-13T05:24:07.438Z,15.00
2023-01-13T05:25:07.416Z,10.80
2023-01-13T05:26:07.393Z,15.50
2023-01-13T05:27:07.400Z,17.30
2023-01-13T05:28:07.368Z,15.00
2023-01-13T05:29:07.400Z,13.60
2023-01-13T05:30:07.355Z,13.70
2023-01-13T05:31:07.416Z,12.90
2023-01-13T05:32:07.348Z,14.20
2023-01-13T05:33:07.325Z,13.50
2023-01-13T05:34:07.333Z,21.20
2023-01-13T05:35:07.295Z,11.00
2023-01-13T05:36:07.288Z,17.00
2023-01-13T05:37:07.280Z,12.10
2023-01-13T05:38:07.270Z,16.70
2023-01-13T05:39:07.295Z,14.20
2023-01-13T05:40:07.243Z,12.80
2023-01-13T05:41:07.241Z,18.20
2023-01-13T05:42:07.234Z,11.60
2023-01-13T05:43:07.224Z,11.60
2023-01-13T05:44:07.264Z,14.30
2023-01-13T05:45:07.186Z,12.90
2023-01-13T05:46:07.250Z,11.60
2023-01-13T05:47:07.177Z,15.30
2023-01-13T05:48:07.163Z,13.00
2023-01-13T05:49:07.205Z,15.40
2023-01-13T05:50:07.146Z,14.10
2023-01-13T05:51:07.132Z,15.30
2023-01-13T05:52:07.120Z,16.20
2023-01-13T05:53:07.116Z,13.50
2023-01-13T05:54:07.110Z,16.40
2023-01-13T05:55:07.113Z,10.90
2023-01-13T05:56:07.100Z,13.10
2023-01-13T05:57:07.073Z,19.00
2023-01-13T05:58:07.064Z,13.00
2023-01-13T05:59:07.050Z,10.80
2023-01-13T06:00:07.070Z,16.50
2023-01-13T06:01:07.227Z,11.40
2023-01-13T06:02:07.016Z,17.90
2023-01-13T06:03:07.049Z,17.90
2023-01-13T06:04:07.036Z,21.00
2023-01-13T06:05:06.993Z,17.00
2023-01-13T06:06:06.971Z,10.10
2023-01-13T06:07:06.952Z,13.60
2023-01-13T06:08:06.954Z,14.70
2023-01-13T06:09:06.953Z,11.30
2023-01-13T06:10:06.915Z,13.50
2023-01-13T06:11:06.907Z,15.50
2023-01-13T06:12:06.896Z,18.40
2023-01-13T06:13:06.900Z,13.90
2023-01-13T06:14:06.880Z,12.90
2023-01-13T06:15:06.893Z,10.90
2023-01-13T06:16:06.882Z,14.20
2023-01-13T06:17:06.856Z,10.10
2023-01-13T06:18:06.835Z,13.80
2023-01-13T06:19:06.844Z,11.10
2023-01-13T06:20:06.828Z,17.80
2023-01-13T06:21:06.813Z,16.60
2023-01-13T06:22:06.796Z,19.40
2023-01-13T06:23:06.777Z,9.90
2023-01-13T06:24:06.772Z,16.90
2023-01-13T06:25:06.777Z,11.70
2023-01-13T06:26:06.749Z,12.30
2023-01-13T06:27:06.734Z,10.50
2023-01-13T06:28:06.739Z,11.40
2023-01-13T06:29:06.732Z,14.80
2023-01-13T06:30:06.723Z,12.70
2023-01-13T06:31:06.781Z,13.00
2023-01-13T06:32:06.699Z,12.50
2023-01-13T06:33:06.689Z,15.30
2023-01-13T06:34:06.657Z,13.20
2023-01-13T06:35:06.668Z,15.10
2023-01-13T06:36:06.644Z,15.10
2023-01-13T06:37:06.641Z,20.40
2023-01-13T06:38:06.617Z,14.50
2023-01-13T06:39:06.620Z,15.50
2023-01-13T06:40:06.619Z,14.70
2023-01-13T06:41:06.595Z,10.50
2023-01-13T06:42:06.578Z,11.90
2023-01-13T06:43:06.575Z,13.30
2023-01-13T06:44:06.561Z,11.60
2023-01-13T06:45:06.565Z,12.00
2023-01-13T06:46:06.540Z,15.50
2023-01-13T06:47:06.521Z,10.90
2023-01-13T06:48:06.509Z,12.70
2023-01-13T06:49:06.494Z,13.30
2023-01-13T06:50:06.509Z,14.30
2023-01-13T06:51:06.487Z,12.50
2023-01-13T06:52:06.473Z,17.90
2023-01-13T06:53:06.463Z,19.20
2023-01-13T06:54:06.452Z,15.70
2023-01-13T06:55:06.454Z,16.60
2023-01-13T06:56:06.483Z,13.90
2023-01-13T06:57:06.418Z,15.50
2023-01-13T06:58:06.415Z,16.20
2023-01-13T06:59:06.392Z,14.10
2023-01-13T07:00:06.396Z,15.20
2023-01-13T07:01:06.479Z,14.80
2023-01-13T07:02:06.419Z,12.30
2023-01-13T07:03:07.188Z,16.90
2023-01-13T07:04:06.332Z,13.00
2023-01-13T07:05:06.340Z,13.70
2023-01-13T07:06:06.305Z,17.80
2023-01-13T07:07:06.294Z,10.40
2023-01-13T07:08:06.297Z,9.40
2023-01-13T07:09:06.986Z,17.30
2023-01-13T07:10:06.294Z,14.00
2023-01-13T07:11:06.262Z,12.20
2023-01-13T07:12:06.256Z,11.80
2023-01-13T07:13:06.237Z,16.20
2023-01-13T07:14:06.224Z,12.20
2023-01-13T07:15:06.220Z,19.00
2023-01-13T07:16:06.299Z,16.40
2023-01-13T07:17:06.192Z,17.20
2023-01-13T07:18:06.174Z,13.60
2023-01-13T07:19:06.169Z,14.50
2023-01-13T07:20:06.186Z,13.80
2023-01-13T07:21:06.162Z,16.90
2023-01-13T07:22:06.134Z,19.40
2023-01-13T07:23:06.137Z,20.10
2023-01-13T07:24:06.113Z,10.70
2023-01-13T07:25:06.127Z,14.90
2023-01-13T07:26:06.102Z,20.30
2023-01-13T07:27:06.093Z,19.40
2023-01-13T07:28:06.062Z,12.90
2023-01-13T07:29:06.056Z,18.50
2023-01-13T07:30:06.083Z,16.40
2023-01-13T07:31:06.031Z,18.50
2023-01-13T07:32:06.142Z,12.60
2023-01-13T07:33:06.022Z,13.30
2023-01-13T07:34:06.506Z,12.60
2023-01-13T07:35:06.009Z,14.80
2023-01-13T07:36:05.975Z,14.30
2023-01-13T07:37:05.981Z,20.40
2023-01-13T07:38:05.973Z,16.80
2023-01-13T07:39:05.955Z,23.60
2023-01-13T07:40:05.957Z,17.20
2023-01-13T07:41:05.927Z,20.00
2023-01-13T07:42:05.918Z,12.70
2023-01-13T07:43:05.905Z,15.30
2023-01-13T07:44:05.890Z,19.20
2023-01-13T07:45:05.906Z,14.40
2023-01-13T07:46:05.943Z,18.20
2023-01-13T07:47:05.900Z,19.20
2023-01-13T07:48:05.861Z,14.80
2023-01-13T07:49:05.873Z,13.40
2023-01-13T07:50:05.870Z,17.20
2023-01-13T07:51:05.844Z,20.90
2023-01-13T07:52:05.808Z,15.20
2023-01-13T07:53:05.791Z,15.70
2023-01-13T07:54:05.793Z,16.80
2023-01-13T07:55:05.783Z,11.90
2023-01-13T07:56:05.784Z,18.10
2023-01-13T07:57:05.790Z,10.30
2023-01-13T07:58:05.760Z,15.50
2023-01-13T07:59:05.754Z,14.60
2023-01-13T08:00:05.729Z,12.10
2023-01-13T08:01:05.851Z,13.70
2023-01-13T08:02:05.995Z,12.70
2023-01-13T08:03:05.696Z,13.50
2023-01-13T08:04:05.678Z,19.00
2023-01-13T08:05:05.694Z,18.30
2023-01-13T08:06:05.660Z,15.00
2023-01-13T08:07:05.646Z,15.80
2023-01-13T08:08:05.654Z,16.50
2023-01-13T08:09:05.648Z,14.70
2023-01-13T08:10:05.646Z,11.40
2023-01-13T08:11:05.630Z,11.80
2023-01-13T08:12:05.598Z,16.00
2023-01-13T08:13:05.579Z,14.20
2023-01-13T08:14:05.571Z,12.10
2023-01-13T08:15:05.579Z,17.20
2023-01-13T08:16:05.547Z,16.60
2023-01-13T08:17:05.570Z,14.20
2023-01-13T08:18:05.537Z,18.30
2023-01-13T08:19:05.542Z,11.80
2023-01-13T08:20:05.541Z,14.80
2023-01-13T08:21:05.492Z,11.70
2023-01-13T08:22:05.491Z,12.60
2023-01-13T08:23:07.233Z,10.70
2023-01-13T08:24:05.461Z,15.90
2023-01-13T08:25:05.498Z,24.90
2023-01-13T08:26:05.452Z,12.60
2023-01-13T08:27:05.434Z,14.90
2023-01-13T08:28:05.415Z,17.30
2023-01-13T08:29:05.420Z,15.20
2023-01-13T08:30:05.431Z,19.70
2023-01-13T08:31:05.441Z,17.60
2023-01-13T08:32:05.373Z,15.70
2023-01-13T08:33:05.372Z,16.30
2023-01-13T08:34:05.343Z,13.50
2023-01-13T08:35:05.385Z,13.90
2023-01-13T08:36:05.339Z,16.70
2023-01-13T08:37:05.313Z,14.40
2023-01-13T08:38:05.328Z,13.70
2023-01-13T08:39:05.357Z,18.70
2023-01-13T08:40:05.346Z,12.80
2023-01-13T08:41:05.292Z,13.60
2023-01-13T08:42:05.281Z,17.20
2023-01-13T08:43:05.261Z,12.30
2023-01-13T08:44:05.248Z,14.80
2023-01-13T08:45:05.240Z,16.60
2023-01-13T08:46:05.344Z,15.70
2023-01-13T08:47:05.280Z,14.00
2023-01-13T08:48:05.247Z,16.20
2023-01-13T08:49:05.225Z,14.00
2023-01-13T08:50:05.220Z,12.80
2023-01-13T08:51:05.172Z,13.60
2023-01-13T08:52:05.201Z,12.70
2023-01-13T08:53:05.193Z,15.90
2023-01-13T08:54:05.168Z,12.20
2023-01-13T08:55:05.183Z,18.50
2023-01-13T08:56:05.208Z,13.40
2023-01-13T08:57:05.204Z,12.20
2023-01-13T08:58:15.435Z,9.10
2023-01-13T08:59:05.086Z,11.20
2023-01-13T09:00:05.088Z,13.60
2023-01-13T09:01:05.166Z,13.60
2023-01-13T09:02:05.131Z,14.80
2023-01-13T09:03:05.046Z,11.40
2023-01-13T09:04:05.059Z,13.60
2023-01-13T09:05:05.039Z,11.40
2023-01-13T09:06:05.004Z,12.80
2023-01-13T09:07:05.002Z,11.10
2023-01-13T09:08:04.973Z,13.00
2023-01-13T09:09:04.978Z,16.00
2023-01-13T09:10:04.965Z,16.20
2023-01-13T09:11:04.942Z,10.80
2023-01-13T09:12:04.931Z,12.50
2023-01-13T09:13:04.928Z,12.20
2023-01-13T09:14:04.906Z,12.90
2023-01-13T09:15:04.911Z,14.70
2023-01-13T09:16:04.931Z,11.70
2023-01-13T09:17:04.880Z,11.80
2023-01-13T09:18:04.864Z,13.60
2023-01-13T09:19:04.857Z,11.30
2023-01-13T09:20:04.854Z,13.00
2023-01-13T09:21:04.837Z,11.00
2023-01-13T09:22:04.815Z,10.00
2023-01-13T09:23:04.816Z,11.20
2023-01-13T09:24:04.793Z,9.40
2023-01-13T09:25:04.792Z,17.00
2023-01-13T09:26:04.785Z,7.40
2023-01-13T09:27:04.775Z,12.80
2023-01-13T09:28:04.761Z,11.30
2023-01-13T09:29:04.765Z,14.80
2023-01-13T09:30:04.733Z,12.90
2023-01-13T09:31:04.785Z,10.70
2023-01-13T09:32:04.703Z,15.40
2023-01-13T09:33:04.693Z,6.00
2023-01-13T09:34:04.701Z,10.00
2023-01-13T09:35:04.672Z,12.60
2023-01-13T09:36:04.695Z,9.40
2023-01-13T09:37:04.671Z,12.50
2023-01-13T09:38:04.649Z,8.40
2023-01-13T09:40:34.563Z,8.60
2023-01-13T09:41:35.544Z,7.90
2023-01-13T09:42:35.523Z,9.00
2023-01-13T09:43:35.521Z,8.00
2023-01-13T09:44:35.525Z,7.10
2023-01-13T09:45:35.529Z,11.70
2023-01-13T09:46:35.516Z,8.20
2023-01-13T09:47:35.667Z,8.30
2023-01-13T09:48:35.466Z,11.30
2023-01-13T09:49:35.464Z,8.80
2023-01-13T09:50:35.464Z,10.40
2023-01-13T09:51:35.482Z,11.00
2023-01-13T09:52:35.438Z,10.00
2023-01-13T09:53:35.417Z,9.80
2023-01-13T09:54:35.404Z,11.60
2023-01-13T09:55:35.420Z,7.00
2023-01-13T09:56:35.373Z,9.00
2023-01-13T09:57:35.612Z,12.00
2023-01-13T09:58:35.376Z,7.60
2023-01-13T09:59:35.364Z,8.70
2023-01-13T10:00:35.367Z,12.50
2023-01-13T10:01:35.342Z,9.90
2023-01-13T10:02:35.312Z,9.70
2023-01-13T10:03:35.319Z,9.60
2023-01-13T10:04:35.338Z,9.10
2023-01-13T10:05:35.310Z,12.20
2023-01-13T10:06:35.267Z,11.60
2023-01-13T10:07:35.885Z,11.50
2023-01-13T10:08:35.257Z,6.40
2023-01-13T10:09:35.267Z,9.40
2023-01-13T10:10:35.256Z,7.10
2023-01-13T10:11:35.231Z,8.00
2023-01-13T10:12:35.222Z,10.10
2023-01-13T10:13:35.192Z,9.60
2023-01-13T10:14:35.194Z,9.40
2023-01-13T10:15:35.202Z,7.70
2023-01-13T10:16:35.160Z,7.40
2023-01-13T10:17:35.172Z,5.60
2023-01-13T10:18:35.168Z,8.20
2023-01-13T10:19:35.155Z,6.90
2023-01-13T10:20:35.142Z,5.80
2023-01-13T10:21:35.123Z,7.50
2023-01-13T10:22:35.138Z,9.30
2023-01-13T10:23:35.089Z,9.20
2023-01-13T10:24:35.073Z,8.20
2023-01-13T10:25:35.092Z,7.40
2023-01-13T10:26:35.075Z,7.00
2023-01-13T10:27:35.046Z,5.50
2023-01-13T10:28:35.038Z,10.00
2023-01-13T10:29:35.031Z,7.70
2023-01-13T10:30:35.157Z,6.80
2023-01-13T10:31:35.073Z,10.50
2023-01-13T10:32:34.995Z,7.20
2023-01-13T10:33:35.060Z,8.70
2023-01-13T10:34:34.974Z,6.90
2023-01-13T10:35:35.021Z,7.20
2023-01-13T10:36:34.983Z,6.70
2023-01-13T10:37:34.945Z,9.40
2023-01-13T10:38:34.931Z,10.20
2023-01-13T10:39:34.944Z,9.30
2023-01-13T10:40:34.915Z,10.10
2023-01-13T10:41:34.890Z,9.40
2023-01-13T10:42:35.450Z,9.70
2023-01-13T10:43:34.908Z,10.80
2023-01-13T10:44:34.867Z,9.40
2023-01-13T10:45:34.882Z,9.00
2023-01-13T10:46:34.854Z,8.20
2023-01-13T10:47:34.861Z,6.40
2023-01-13T10:48:34.838Z,8.00
2023-01-13T10:49:34.814Z,10.80
2023-01-13T10:50:34.840Z,9.00
2023-01-13T10:51:34.792Z,10.00
2023-01-13T10:52:34.781Z,11.20
2023-01-13T10:53:34.786Z,7.90
2023-01-13T10:54:34.784Z,8.50
2023-01-13T10:55:34.766Z,9.20
2023-01-13T10:56:34.727Z,11.60
2023-01-13T10:57:34.736Z,8.00
2023-01-13T10:58:34.728Z,7.90
2023-01-13T10:59:34.692Z,7.20
2023-01-13T11:00:34.716Z,8.80
2023-01-13T11:01:34.820Z,6.40
2023-01-13T11:02:34.708Z,5.20
2023-01-13T11:03:34.653Z,8.00
2023-01-13T11:04:34.695Z,9.00
2023-01-13T11:05:34.645Z,10.00
2023-01-13T11:06:34.663Z,7.20
2023-01-13T11:07:34.679Z,6.60
2023-01-13T11:08:34.595Z,9.40
2023-01-13T11:09:34.632Z,9.30
2023-01-13T11:10:34.646Z,8.10
2023-01-13T11:11:34.575Z,8.60
2023-01-13T11:12:34.598Z,9.20
2023-01-13T11:13:34.552Z,4.90
2023-01-13T11:14:34.533Z,8.00
2023-01-13T11:15:34.619Z,9.90
2023-01-13T11:16:34.557Z,8.90
2023-01-13T11:17:34.542Z,9.00
2023-01-13T11:18:34.525Z,8.80
2023-01-13T11:19:36.524Z,7.70
2023-01-13T11:20:34.511Z,11.20
2023-01-13T11:21:34.464Z,8.70
2023-01-13T11:22:34.472Z,6.90
2023-01-13T11:23:34.438Z,5.90
2023-01-13T11:24:34.444Z,9.50
2023-01-13T11:25:34.439Z,6.50
2023-01-13T11:26:34.412Z,9.50
2023-01-13T11:27:34.425Z,10.80
2023-01-13T11:28:34.395Z,8.70
2023-01-13T11:29:34.395Z,8.60
2023-01-13T11:30:34.400Z,11.10
2023-01-13T11:31:34.438Z,11.50
2023-01-13T11:32:34.347Z,7.90
2023-01-13T11:33:34.332Z,8.60
2023-01-13T11:34:34.339Z,6.80
2023-01-13T11:35:34.328Z,8.30
2023-01-13T11:36:34.323Z,7.10
2023-01-13T11:37:34.318Z,4.70
2023-01-13T11:38:34.281Z,7.20
2023-01-13T11:39:34.273Z,5.50
2023-01-13T11:40:34.327Z,9.10
2023-01-13T11:41:34.253Z,8.60
2023-01-13T11:42:36.587Z,6.80
2023-01-13T11:43:34.227Z,9.50
2023-01-13T11:44:34.219Z,8.10
2023-01-13T11:45:34.217Z,7.20
2023-01-13T11:46:34.230Z,6.10
2023-01-13T11:47:34.188Z,5.90
2023-01-13T11:48:34.174Z,6.50
2023-01-13T11:49:34.185Z,4.30
2023-01-13T11:50:34.158Z,7.30
2023-01-13T11:51:34.163Z,5.00
2023-01-13T11:52:34.139Z,5.10
2023-01-13T11:53:34.129Z,7.70
2023-01-13T11:54:34.129Z,6.90
2023-01-13T11:55:34.101Z,5.90
2023-01-13T11:56:34.114Z,5.90
2023-01-13T11:57:34.084Z,8.40
2023-01-13T11:58:45.611Z,6.30
2023-01-13T11:59:34.065Z,6.60
2023-01-13T12:00:34.046Z,7.30
2023-01-13T12:01:34.094Z,6.40
2023-01-13T12:02:34.019Z,6.80
2023-01-13T12:03:34.057Z,7.30
2023-01-13T12:04:33.998Z,5.60
2023-01-13T12:05:33.985Z,5.40
2023-01-13T12:06:33.992Z,5.80
2023-01-13T12:07:33.964Z,6.10
2023-01-13T12:08:33.951Z,9.20
2023-01-13T12:09:33.943Z,6.60
2023-01-13T12:10:33.962Z,8.30
2023-01-13T12:11:33.952Z,7.20
2023-01-13T12:12:33.931Z,6.50
2023-01-13T12:13:33.908Z,7.60
2023-01-13T12:14:33.891Z,6.60
2023-01-13T12:15:33.879Z,10.60
2023-01-13T12:16:33.979Z,5.70
2023-01-13T12:17:33.858Z,7.80
2023-01-13T12:18:33.855Z,8.80
2023-01-13T12:19:33.839Z,8.50
2023-01-13T12:20:33.825Z,8.10
2023-01-13T12:21:33.842Z,6.60
2023-01-13T12:22:35.979Z,11.00
2023-01-13T12:23:33.803Z,6.50
2023-01-13T12:24:33.787Z,7.30
2023-01-13T12:25:33.766Z,7.20
2023-01-13T12:26:33.796Z,8.20
2023-01-13T12:27:33.778Z,8.50
2023-01-13T12:28:33.783Z,8.70
2023-01-13T12:29:33.756Z,9.30
2023-01-13T12:30:33.725Z,8.90
2023-01-13T12:31:33.810Z,9.20
2023-01-13T12:32:33.709Z,12.10
2023-01-13T12:33:33.695Z,12.60
2023-01-13T12:34:33.686Z,7.80
2023-01-13T12:35:33.666Z,9.70
2023-01-13T12:36:33.683Z,9.80
2023-01-13T12:37:33.654Z,7.40
2023-01-13T12:38:34.507Z,7.50
2023-01-13T12:39:33.624Z,9.80
2023-01-13T12:40:33.638Z,8.90
2023-01-13T12:41:33.632Z,10.40
2023-01-13T12:42:33.602Z,10.20
2023-01-13T12:43:33.583Z,10.70
2023-01-13T12:44:33.585Z,8.60
2023-01-13T12:45:33.657Z,10.10
2023-01-13T12:46:33.565Z,9.80
2023-01-13T12:47:33.596Z,10.20
2023-01-13T12:48:33.527Z,7.20
2023-01-13T12:49:33.536Z,11.60
2023-01-13T12:50:33.505Z,8.70
2023-01-13T12:51:33.535Z,10.80
2023-01-13T12:52:33.492Z,12.70
2023-01-13T12:53:33.481Z,10.40
2023-01-13T12:54:33.466Z,6.50
2023-01-13T12:55:33.465Z,6.50
2023-01-13T12:56:35.461Z,8.00
2023-01-13T12:57:33.429Z,9.50
2023-01-13T12:58:33.420Z,8.50
2023-01-13T12:59:33.417Z,10.70
2023-01-13T13:00:33.407Z,13.60
2023-01-13T13:01:33.498Z,9.40
2023-01-13T13:02:33.426Z,11.00
2023-01-13T13:03:33.394Z,5.30
2023-01-13T13:04:33.362Z,11.30